Time;durP1;ratioP1;P1;durP2;ratioP2;P2;SDS_P1;SDS_P2;PMS_P1;PMS_P2;Temp;Humidity;BMP_temperature;BMP_pressure;BME280_temperature;BME280_humidity;BME280_pressure;Samples;Min_cycle;Max_cycle;Signal;HPM_P1;HPM_P2
2024/01/15 00:00:06;;;;;;;27.08;13.90;;;;;;;;;;686476;28;830;-62
2024/01/15 00:00:30;;;;;;;28.58;14.75;;;;;;;;;;685705;28;2493;-60
2024/01/15 00:00:51;;;;;;;32.40;15.97;;;;;;;;;;687339;28;855;-60
2024/01/15 00:01:11;;;;;;;31.27;14.77;;;;;;;;;;687951;28;4862;-62
2024/01/15 00:01:31;;;;;;;27.73;13.93;;;;;;;;;;686728;28;2329;-63
2024/01/15 00:01:52;;;;;;;27.30;14.17;;;;;;;;;;684578;28;1294;-62
2024/01/15 00:02:12;;;;;;;30.23;15.10;;;;;;;;;;684418;28;839;-62
2024/01/15 00:02:32;;;;;;;31.02;15.50;;;;;;;;;;682868;28;1882;-61
2024/01/15 00:02:53;;;;;;;28.27;13.90;;;;;;;;;;684588;28;889;-62
2024/01/15 00:03:13;;;;;;;30.27;14.70;;;;;;;;;;684248;28;1452;-60
2024/01/15 00:03:33;;;;;;;28.73;14.37;;;;;;;;;;681284;28;1714;-61
2024/01/15 00:03:53;;;;;;;26.67;14.50;;;;;;;;;;684207;28;885;-60
2024/01/15 00:04:13;;;;;;;30.03;15.37;;;;;;;;;;684105;28;4297;-61
2024/01/15 00:04:40;;;;;;;27.52;14.82;;;;;;;;;;683436;28;2235;-60
2024/01/15 00:05:01;;;;;;;28.95;14.18;;;;;;;;;;682172;28;1974;-61
2024/01/15 00:05:21;;;;;;;28.80;14.17;;;;;;;;;;682972;28;2244;-63
2024/01/15 00:05:42;;;;;;;26.63;13.90;;;;;;;;;;684484;28;766;-61
2024/01/15 00:06:02;;;;;;;28.80;13.48;;;;;;;;;;684946;28;845;-61
2024/01/15 00:06:23;;;;;;;28.30;14.20;;;;;;;;;;683516;28;1730;-61
2024/01/15 00:06:43;;;;;;;30.15;14.73;;;;;;;;;;684246;28;865;-61
2024/01/15 00:07:05;;;;;;;30.47;14.33;;;;;;;;;;683446;28;4487;-62
2024/01/15 00:07:26;;;;;;;32.53;14.75;;;;;;;;;;686410;28;966;-61
2024/01/15 00:07:47;;;;;;;29.58;14.70;;;;;;;;;;687160;28;944;-61
2024/01/15 00:08:07;;;;;;;29.13;14.88;;;;;;;;;;687135;28;893;-60
2024/01/15 00:08:29;;;;;;;29.75;14.88;;;;;;;;;;686593;28;1731;-62
2024/01/15 00:08:50;;;;;;;31.40;15.63;;;;;;;;;;687172;28;1043;-61
2024/01/15 00:09:10;;;;;;;31.17;16.20;;;;;;;;;;687631;28;814;-61
2024/01/15 00:09:31;;;;;;;31.85;15.57;;;;;;;;;;686097;28;1569;-62
2024/01/15 00:09:52;;;;;;;29.63;14.63;;;;;;;;;;686503;28;830;-60
2024/01/15 00:10:12;;;;;;;31.20;14.30;;;;;;;;;;685022;28;4448;-63
2024/01/15 00:10:32;;;;;;;29.50;14.43;;;;;;;;;;683088;28;1602;-61
2024/01/15 00:10:53;;;;;;;28.73;14.63;;;;;;;;;;683695;28;984;-62
2024/01/15 00:11:13;;;;;;;29.10;15.17;;;;;;;;;;684629;28;796;-61
2024/01/15 00:11:33;;;;;;;28.27;14.53;;;;;;;;;;681109;28;1851;-62
2024/01/15 00:11:53;;;;;;;31.17;15.30;;;;;;;;;;682925;28;1573;-60
2024/01/15 00:12:14;;;;;;;29.73;15.60;;;;;;;;;;682923;28;957;-61
2024/01/15 00:12:34;;;;;;;28.40;14.98;;;;;;;;;;680975;28;1475;-59
2024/01/15 00:12:54;;;;;;;29.27;14.90;;;;;;;;;;684928;28;1425;-61
2024/01/15 00:13:15;;;;;;;31.27;15.10;;;;;;;;;;684648;28;4500;-61
2024/01/15 00:13:35;;;;;;;29.23;14.82;;;;;;;;;;688645;28;2226;-61
2024/01/15 00:13:55;;;;;;;25.30;13.70;;;;;;;;;;688123;28;987;-61
2024/01/15 00:14:19;;;;;;;27.83;14.07;;;;;;;;;;689863;28;1312;-60
2024/01/15 00:14:40;;;;;;;29.05;14.80;;;;;;;;;;689326;28;1139;-60
2024/01/15 00:15:00;;;;;;;29.50;14.17;;;;;;;;;;689183;28;1457;-61
2024/01/15 00:15:20;;;;;;;28.30;14.33;;;;;;;;;;687571;28;1922;-60
2024/01/15 00:15:41;;;;;;;28.53;14.10;;;;;;;;;;684741;28;1389;-61
2024/01/15 00:16:01;;;;;;;29.03;14.50;;;;;;;;;;683362;28;4370;-63
2024/01/15 00:16:21;;;;;;;30.52;14.38;;;;;;;;;;686463;28;1512;-63
2024/01/15 00:16:41;;;;;;;30.00;14.67;;;;;;;;;;687146;28;939;-61
2024/01/15 00:17:02;;;;;;;31.57;15.67;;;;;;;;;;686941;28;971;-61
2024/01/15 00:17:22;;;;;;;30.58;14.85;;;;;;;;;;685963;28;1859;-60
2024/01/15 00:17:42;;;;;;;29.57;14.57;;;;;;;;;;687044;28;799;-61
2024/01/15 00:18:02;;;;;;;29.83;14.63;;;;;;;;;;686656;28;1587;-61
2024/01/15 00:18:23;;;;;;;29.35;14.82;;;;;;;;;;686621;28;2112;-62
2024/01/15 00:18:43;;;;;;;30.70;14.97;;;;;;;;;;687681;28;901;-61
2024/01/15 00:19:03;;;;;;;30.67;15.40;;;;;;;;;;686800;28;4533;-61
2024/01/15 00:19:24;;;;;;;29.85;14.65;;;;;;;;;;686370;28;2366;-60
2024/01/15 00:19:44;;;;;;;29.30;14.70;;;;;;;;;;686439;28;869;-62
2024/01/15 00:20:05;;;;;;;30.45;13.95;;;;;;;;;;687223;28;960;-62
2024/01/15 00:20:25;;;;;;;31.95;14.70;;;;;;;;;;685904;28;3400;-62
2024/01/15 00:20:46;;;;;;;31.17;15.63;;;;;;;;;;686342;28;1429;-60
2024/01/15 00:21:06;;;;;;;30.35;15.65;;;;;;;;;;687157;28;1346;-61
2024/01/15 00:21:27;;;;;;;32.03;15.73;;;;;;;;;;685718;28;1749;-60
2024/01/15 00:21:48;;;;;;;34.42;16.35;;;;;;;;;;687703;28;833;-60
2024/01/15 00:22:08;;;;;;;32.30;15.57;;;;;;;;;;685336;28;4398;-62
2024/01/15 00:22:28;;;;;;;30.80;15.00;;;;;;;;;;683285;28;1457;-60
2024/01/15 00:22:49;;;;;;;28.80;14.63;;;;;;;;;;684802;28;1135;-61
2024/01/15 00:23:09;;;;;;;31.70;15.27;;;;;;;;;;684553;28;1560;-60
2024/01/15 00:23:29;;;;;;;32.10;15.40;;;;;;;;;;683027;28;2262;-61
2024/01/15 00:23:49;;;;;;;31.83;15.82;;;;;;;;;;684888;28;945;-60
2024/01/15 00:24:10;;;;;;;29.97;15.40;;;;;;;;;;684699;28;1261;-60
2024/01/15 00:24:30;;;;;;;31.40;15.37;;;;;;;;;;682889;28;1667;-61
2024/01/15 00:24:50;;;;;;;29.75;15.20;;;;;;;;;;684483;28;1900;-60
2024/01/15 00:25:10;;;;;;;33.90;15.67;;;;;;;;;;685829;28;4395;-62
2024/01/15 00:25:31;;;;;;;33.37;15.17;;;;;;;;;;686075;28;1904;-61
2024/01/15 00:25:51;;;;;;;32.43;15.67;;;;;;;;;;687357;28;1290;-61
2024/01/15 00:26:12;;;;;;;33.67;16.57;;;;;;;;;;687115;28;1263;-61
2024/01/15 00:26:32;;;;;;;32.17;15.55;;;;;;;;;;685706;28;1515;-60
2024/01/15 00:26:53;;;;;;;32.07;15.23;;;;;;;;;;687384;28;920;-63
2024/01/15 00:27:13;;;;;;;31.50;15.30;;;;;;;;;;687694;28;975;-61
2024/01/15 00:27:34;;;;;;;30.60;14.57;;;;;;;;;;685938;28;964;-61
2024/01/15 00:27:54;;;;;;;32.70;14.93;;;;;;;;;;686957;28;1294;-60
2024/01/15 00:28:14;;;;;;;33.93;15.63;;;;;;;;;;686711;28;4621;-59
2024/01/15 00:28:35;;;;;;;34.00;16.40;;;;;;;;;;685488;28;1765;-61
2024/01/15 00:28:55;;;;;;;31.13;15.00;;;;;;;;;;687247;28;909;-61
2024/01/15 00:29:16;;;;;;;33.37;15.97;;;;;;;;;;687310;28;1207;-62
2024/01/15 00:29:36;;;;;;;34.67;15.70;;;;;;;;;;685214;28;2280;-63
2024/01/15 00:29:56;;;;;;;34.70;16.60;;;;;;;;;;686997;28;786;-60
2024/01/15 00:30:17;;;;;;;35.23;16.37;;;;;;;;;;687105;28;790;-62
2024/01/15 00:30:37;;;;;;;33.08;16.23;;;;;;;;;;686572;28;1813;-63
2024/01/15 00:30:57;;;;;;;30.33;15.80;;;;;;;;;;687159;28;1394;-62
2024/01/15 00:31:18;;;;;;;34.60;16.10;;;;;;;;;;684494;28;4389;-62
2024/01/15 00:31:38;;;;;;;34.80;16.10;;;;;;;;;;682644;28;2285;-61
2024/01/15 00:31:58;;;;;;;35.30;16.13;;;;;;;;;;684568;28;794;-61
2024/01/15 00:32:19;;;;;;;32.93;15.43;;;;;;;;;;683701;28;1116;-64
2024/01/15 00:32:40;;;;;;;33.75;15.52;;;;;;;;;;684240;28;1315;-62
2024/01/15 00:33:00;;;;;;;33.63;15.23;;;;;;;;;;684393;28;755;-61
2024/01/15 00:33:20;;;;;;;33.90;15.93;;;;;;;;;;683274;28;2350;-60
2024/01/15 00:33:40;;;;;;;34.17;16.25;;;;;;;;;;684528;28;941;-61
2024/01/15 00:34:01;;;;;;;34.13;16.03;;;;;;;;;;683917;28;4370;-60
2024/01/15 00:34:21;;;;;;;36.37;16.40;;;;;;;;;;682783;28;1635;-62
2024/01/15 00:34:41;;;;;;;34.85;16.02;;;;;;;;;;684235;28;866;-62
2024/01/15 00:35:03;;;;;;;32.07;15.83;;;;;;;;;;683931;28;1953;-60
2024/01/15 00:35:23;;;;;;;32.42;16.42;;;;;;;;;;683403;28;1917;-62
2024/01/15 00:35:43;;;;;;;32.33;16.10;;;;;;;;;;684199;28;1259;-63
2024/01/15 00:36:04;;;;;;;32.13;16.57;;;;;;;;;;683757;28;1539;-63
2024/01/15 00:36:24;;;;;;;32.05;16.23;;;;;;;;;;682537;28;2431;-61
2024/01/15 00:36:44;;;;;;;31.53;15.70;;;;;;;;;;684485;28;901;-60
2024/01/15 00:37:06;;;;;;;31.03;15.43;;;;;;;;;;683547;28;4438;-61
2024/01/15 00:37:27;;;;;;;33.13;16.08;;;;;;;;;;682790;28;2710;-60
2024/01/15 00:37:47;;;;;;;32.77;15.63;;;;;;;;;;683561;28;1240;-63
2024/01/15 00:38:07;;;;;;;32.15;15.68;;;;;;;;;;684235;28;949;-62
2024/01/15 00:38:28;;;;;;;31.83;15.70;;;;;;;;;;683335;28;2138;-60
2024/01/15 00:38:48;;;;;;;33.50;15.77;;;;;;;;;;684174;28;1171;-63
2024/01/15 00:39:10;;;;;;;31.25;15.85;;;;;;;;;;684140;28;1299;-60
2024/01/15 00:39:30;;;;;;;31.77;15.95;;;;;;;;;;682994;28;1426;-61
2024/01/15 00:39:51;;;;;;;32.93;15.77;;;;;;;;;;684483;28;893;-60
2024/01/15 00:40:11;;;;;;;33.30;15.75;;;;;;;;;;685198;28;4444;-62
2024/01/15 00:40:31;;;;;;;31.80;15.53;;;;;;;;;;686530;28;1455;-60
2024/01/15 00:40:52;;;;;;;33.00;16.57;;;;;;;;;;686869;28;1512;-62
2024/01/15 00:41:12;;;;;;;34.20;16.40;;;;;;;;;;686284;28;1092;-61
2024/01/15 00:41:32;;;;;;;34.53;16.10;;;;;;;;;;685698;28;1752;-60
2024/01/15 00:41:52;;;;;;;34.40;15.83;;;;;;;;;;687358;28;919;-61
2024/01/15 00:42:13;;;;;;;38.25;16.50;;;;;;;;;;686927;28;884;-60
2024/01/15 00:42:34;;;;;;;36.30;16.90;;;;;;;;;;685818;28;2286;-59
2024/01/15 00:42:54;;;;;;;34.40;16.45;;;;;;;;;;686791;28;1530;-62
2024/01/15 00:43:14;;;;;;;34.37;16.47;;;;;;;;;;684158;28;4879;-61
2024/01/15 00:43:35;;;;;;;34.13;16.07;;;;;;;;;;683169;28;1884;-60
2024/01/15 00:43:55;;;;;;;33.55;16.00;;;;;;;;;;684393;28;1296;-62
2024/01/15 00:44:16;;;;;;;31.80;15.10;;;;;;;;;;684224;28;866;-61
2024/01/15 00:44:36;;;;;;;30.20;15.02;;;;;;;;;;682929;28;2252;-60
2024/01/15 00:44:56;;;;;;;31.60;16.57;;;;;;;;;;684047;28;1914;-61
2024/01/15 00:45:16;;;;;;;32.13;16.50;;;;;;;;;;684383;28;865;-60
2024/01/15 00:45:37;;;;;;;32.80;16.07;;;;;;;;;;683023;28;1599;-60
2024/01/15 00:45:57;;;;;;;33.97;16.17;;;;;;;;;;684712;28;976;-62
2024/01/15 00:46:17;;;;;;;34.80;16.60;;;;;;;;;;684037;28;4349;-61
2024/01/15 00:46:45;;;;;;;32.33;16.33;;;;;;;;;;683220;28;1196;-60
2024/01/15 00:47:05;;;;;;;32.97;16.10;;;;;;;;;;683102;28;1362;-62
2024/01/15 00:47:25;;;;;;;32.22;15.75;;;;;;;;;;683119;28;2629;-61
2024/01/15 00:47:46;;;;;;;30.83;15.30;;;;;;;;;;684007;28;980;-62
2024/01/15 00:48:06;;;;;;;32.50;16.17;;;;;;;;;;684264;28;1004;-61
2024/01/15 00:48:26;;;;;;;32.78;16.15;;;;;;;;;;683106;28;1151;-61
2024/01/15 00:48:47;;;;;;;32.80;15.97;;;;;;;;;;684293;28;1358;-61
2024/01/15 00:49:07;;;;;;;31.27;14.98;;;;;;;;;;684123;28;4436;-60
2024/01/15 00:49:27;;;;;;;33.50;15.83;;;;;;;;;;683059;28;1015;-63
2024/01/15 00:49:48;;;;;;;32.10;15.63;;;;;;;;;;683857;28;802;-61
2024/01/15 00:50:08;;;;;;;32.08;15.63;;;;;;;;;;684796;28;850;-61
2024/01/15 00:50:29;;;;;;;32.87;15.73;;;;;;;;;;683429;28;1393;-60
2024/01/15 00:50:49;;;;;;;33.05;16.05;;;;;;;;;;684456;28;786;-62
2024/01/15 00:51:09;;;;;;;33.20;15.63;;;;;;;;;;684279;28;1242;-61
2024/01/15 00:51:29;;;;;;;34.37;15.87;;;;;;;;;;683352;28;1046;-61
2024/01/15 00:51:49;;;;;;;32.60;16.08;;;;;;;;;;684302;28;810;-61
2024/01/15 00:52:10;;;;;;;30.70;15.43;;;;;;;;;;684115;28;4501;-62
2024/01/15 00:52:30;;;;;;;30.60;15.63;;;;;;;;;;683738;28;1332;-60
2024/01/15 00:52:50;;;;;;;32.22;15.75;;;;;;;;;;684022;28;1024;-61
2024/01/15 00:53:11;;;;;;;31.20;16.60;;;;;;;;;;684765;28;945;-61
2024/01/15 00:53:31;;;;;;;31.65;16.35;;;;;;;;;;683312;28;1203;-61
2024/01/15 00:53:51;;;;;;;31.90;15.67;;;;;;;;;;684203;28;905;-60
2024/01/15 00:54:11;;;;;;;31.37;15.43;;;;;;;;;;684035;28;3192;-61
2024/01/15 00:54:32;;;;;;;33.00;15.73;;;;;;;;;;682394;28;1360;-60
2024/01/15 00:54:52;;;;;;;33.60;16.20;;;;;;;;;;684531;28;1214;-60
2024/01/15 00:55:12;;;;;;;33.67;16.10;;;;;;;;;;684080;28;4360;-60
2024/01/15 00:55:33;;;;;;;33.85;16.45;;;;;;;;;;682865;28;919;-60
2024/01/15 00:55:53;;;;;;;33.00;16.10;;;;;;;;;;684518;28;790;-60
2024/01/15 00:56:14;;;;;;;29.58;15.65;;;;;;;;;;684754;28;1020;-62
2024/01/15 00:56:34;;;;;;;29.87;15.83;;;;;;;;;;683608;28;1364;-59
2024/01/15 00:56:54;;;;;;;28.97;15.57;;;;;;;;;;684211;28;1227;-60
2024/01/15 00:57:15;;;;;;;30.20;15.60;;;;;;;;;;684410;28;913;-60
2024/01/15 00:57:35;;;;;;;33.23;15.80;;;;;;;;;;683129;28;1097;-62
2024/01/15 00:57:55;;;;;;;34.55;15.73;;;;;;;;;;684451;28;1206;-62
2024/01/15 00:58:16;;;;;;;32.90;15.83;;;;;;;;;;683893;28;4380;-60
2024/01/15 00:58:36;;;;;;;31.77;16.40;;;;;;;;;;683549;28;958;-62
2024/01/15 00:58:56;;;;;;;33.30;16.67;;;;;;;;;;684557;28;882;-61
2024/01/15 00:59:17;;;;;;;30.97;15.93;;;;;;;;;;684432;28;877;-60
2024/01/15 00:59:37;;;;;;;31.52;15.68;;;;;;;;;;682667;28;1019;-60
2024/01/15 00:59:58;;;;;;;30.23;15.48;;;;;;;;;;684284;28;1316;-59
2024/01/15 01:00:18;;;;;;;30.10;16.10;;;;;;;;;;684315;28;882;-60
2024/01/15 01:00:38;;;;;;;31.37;15.37;;;;;;;;;;683470;28;1228;-60
2024/01/15 01:00:58;;;;;;;30.30;15.47;;;;;;;;;;684075;28;790;-59
2024/01/15 01:01:19;;;;;;;32.43;15.27;;;;;;;;;;686108;28;4447;-61
2024/01/15 01:01:42;;;;;;;32.93;15.43;;;;;;;;;;685860;28;1365;-60
2024/01/15 01:02:03;;;;;;;33.72;15.98;;;;;;;;;;686497;28;801;-60
2024/01/15 01:02:23;;;;;;;31.83;15.83;;;;;;;;;;685939;28;903;-60
2024/01/15 01:02:43;;;;;;;32.08;16.05;;;;;;;;;;686686;28;1002;-60
2024/01/15 01:03:03;;;;;;;31.57;15.90;;;;;;;;;;683716;28;1457;-60
2024/01/15 01:03:24;;;;;;;35.50;16.10;;;;;;;;;;681535;28;1303;-61
2024/01/15 01:03:44;;;;;;;33.33;15.40;;;;;;;;;;682931;28;1150;-60
2024/01/15 01:04:04;;;;;;;32.47;16.30;;;;;;;;;;679077;29;4380;-60
2024/01/15 01:04:24;;;;;;;32.17;16.03;;;;;;;;;;678980;28;1147;-60
2024/01/15 01:04:45;;;;;;;34.40;16.05;;;;;;;;;;684397;28;1910;-60
2024/01/15 01:05:05;;;;;;;30.83;15.40;;;;;;;;;;684321;28;890;-60
2024/01/15 01:05:25;;;;;;;31.63;15.37;;;;;;;;;;682833;28;1489;-60
2024/01/15 01:05:48;;;;;;;30.08;14.75;;;;;;;;;;684438;28;822;-61
2024/01/15 01:06:08;;;;;;;32.05;15.80;;;;;;;;;;684205;28;1039;-61
2024/01/15 01:06:28;;;;;;;33.07;15.67;;;;;;;;;;682932;28;1097;-59
2024/01/15 01:06:48;;;;;;;33.92;15.40;;;;;;;;;;684504;28;1303;-60
2024/01/15 01:07:08;;;;;;;31.27;15.10;;;;;;;;;;684055;28;4549;-60
2024/01/15 01:07:29;;;;;;;32.57;15.83;;;;;;;;;;685711;28;1039;-59
2024/01/15 01:07:49;;;;;;;33.08;16.08;;;;;;;;;;687136;28;957;-60
2024/01/15 01:08:09;;;;;;;31.13;15.77;;;;;;;;;;686936;28;869;-60
2024/01/15 01:08:29;;;;;;;29.27;15.47;;;;;;;;;;686354;28;1362;-60
2024/01/15 01:08:50;;;;;;;28.33;15.60;;;;;;;;;;687954;28;1115;-62
2024/01/15 01:09:10;;;;;;;31.20;15.87;;;;;;;;;;687259;28;853;-60
2024/01/15 01:09:30;;;;;;;34.67;17.07;;;;;;;;;;685681;28;976;-62
2024/01/15 01:09:51;;;;;;;33.10;16.10;;;;;;;;;;686483;28;913;-60
2024/01/15 01:10:11;;;;;;;32.43;16.00;;;;;;;;;;685776;28;4367;-60
2024/01/15 01:10:31;;;;;;;31.80;16.30;;;;;;;;;;686168;28;1099;-61
2024/01/15 01:10:52;;;;;;;33.42;15.65;;;;;;;;;;687061;28;852;-61
2024/01/15 01:11:13;;;;;;;31.77;15.55;;;;;;;;;;687498;28;823;-59
2024/01/15 01:11:33;;;;;;;33.38;16.75;;;;;;;;;;686335;28;1025;-62
2024/01/15 01:11:54;;;;;;;31.97;16.00;;;;;;;;;;689190;28;1597;-61
2024/01/15 01:12:14;;;;;;;31.50;15.88;;;;;;;;;;687965;28;1019;-60
2024/01/15 01:12:35;;;;;;;33.97;15.93;;;;;;;;;;687240;28;1549;-62
2024/01/15 01:12:55;;;;;;;30.27;15.40;;;;;;;;;;688641;28;781;-60
2024/01/15 01:13:15;;;;;;;31.40;15.73;;;;;;;;;;687366;28;4413;-60
2024/01/15 01:13:35;;;;;;;30.03;15.43;;;;;;;;;;686941;28;1053;-60
2024/01/15 01:13:56;;;;;;;29.67;15.00;;;;;;;;;;688359;28;1429;-61
2024/01/15 01:14:16;;;;;;;31.55;15.35;;;;;;;;;;687037;28;987;-60
2024/01/15 01:14:37;;;;;;;31.65;15.10;;;;;;;;;;686362;28;1166;-61
2024/01/15 01:14:57;;;;;;;32.03;15.27;;;;;;;;;;686923;28;983;-60
2024/01/15 01:15:17;;;;;;;33.60;15.67;;;;;;;;;;687410;28;953;-60
2024/01/15 01:15:38;;;;;;;33.80;15.68;;;;;;;;;;686309;28;1251;-60
2024/01/15 01:15:58;;;;;;;32.22;16.08;;;;;;;;;;687162;28;936;-60
2024/01/15 01:16:18;;;;;;;31.83;15.70;;;;;;;;;;683861;28;4436;-60
2024/01/15 01:16:39;;;;;;;31.67;15.43;;;;;;;;;;682932;28;1248;-60
2024/01/15 01:16:59;;;;;;;32.35;15.35;;;;;;;;;;684100;28;1057;-60
2024/01/15 01:17:19;;;;;;;31.97;15.53;;;;;;;;;;684556;28;889;-60
2024/01/15 01:17:40;;;;;;;33.47;15.87;;;;;;;;;;683234;28;1118;-59
2024/01/15 01:18:00;;;;;;;32.35;16.20;;;;;;;;;;684235;28;889;-59
2024/01/15 01:18:20;;;;;;;33.07;15.83;;;;;;;;;;684198;28;1004;-61
2024/01/15 01:18:40;;;;;;;33.20;16.23;;;;;;;;;;683274;28;1200;-60
2024/01/15 01:19:01;;;;;;;32.20;16.25;;;;;;;;;;682238;28;4345;-60
2024/01/15 01:19:21;;;;;;;32.60;15.63;;;;;;;;;;684720;28;896;-59
2024/01/15 01:19:41;;;;;;;33.97;16.17;;;;;;;;;;682979;28;1233;-59
2024/01/15 01:20:04;;;;;;;33.15;16.35;;;;;;;;;;684160;28;1022;-61
2024/01/15 01:20:24;;;;;;;34.25;17.00;;;;;;;;;;683444;28;1017;-60
2024/01/15 01:20:44;;;;;;;35.38;16.90;;;;;;;;;;684719;28;968;-59
2024/01/15 01:21:05;;;;;;;32.97;16.13;;;;;;;;;;684391;28;877;-61
2024/01/15 01:21:25;;;;;;;32.30;15.48;;;;;;;;;;682969;28;1163;-61
2024/01/15 01:21:46;;;;;;;33.83;16.00;;;;;;;;;;684153;28;962;-59
2024/01/15 01:22:06;;;;;;;33.83;16.13;;;;;;;;;;683792;28;4365;-61
2024/01/15 01:22:26;;;;;;;32.07;15.60;;;;;;;;;;682984;28;1249;-61
2024/01/15 01:22:46;;;;;;;31.93;15.83;;;;;;;;;;684118;28;1340;-60
2024/01/15 01:23:07;;;;;;;34.38;16.08;;;;;;;;;;684234;28;1043;-60
2024/01/15 01:23:27;;;;;;;33.13;15.90;;;;;;;;;;683000;28;1177;-60
2024/01/15 01:23:47;;;;;;;30.77;15.43;;;;;;;;;;684592;28;1190;-59
2024/01/15 01:24:07;;;;;;;32.23;16.03;;;;;;;;;;684717;28;1219;-59
2024/01/15 01:24:28;;;;;;;32.40;15.80;;;;;;;;;;683044;28;828;-60
2024/01/15 01:24:48;;;;;;;32.93;15.37;;;;;;;;;;683901;28;1940;-59
2024/01/15 01:25:09;;;;;;;31.03;15.63;;;;;;;;;;683509;28;4355;-61
2024/01/15 01:25:29;;;;;;;31.02;15.80;;;;;;;;;;683117;28;1085;-60
2024/01/15 01:25:49;;;;;;;32.50;15.60;;;;;;;;;;684445;28;940;-58
2024/01/15 01:26:09;;;;;;;33.45;15.60;;;;;;;;;;684472;28;849;-60
2024/01/15 01:26:30;;;;;;;30.67;15.87;;;;;;;;;;683125;28;1046;-59
2024/01/15 01:26:50;;;;;;;29.58;15.32;;;;;;;;;;683897;28;983;-60
2024/01/15 01:27:10;;;;;;;30.27;15.37;;;;;;;;;;684556;28;873;-60
2024/01/15 01:27:31;;;;;;;29.47;14.67;;;;;;;;;;682711;28;1359;-60
2024/01/15 01:27:51;;;;;;;29.48;15.18;;;;;;;;;;684628;28;948;-59
2024/01/15 01:28:11;;;;;;;30.10;15.20;;;;;;;;;;684229;28;4354;-59
2024/01/15 01:28:31;;;;;;;32.63;15.67;;;;;;;;;;682674;28;887;-58
2024/01/15 01:28:52;;;;;;;34.47;16.27;;;;;;;;;;684169;28;967;-59
2024/01/15 01:29:12;;;;;;;31.40;15.73;;;;;;;;;;684667;28;1249;-60
2024/01/15 01:29:32;;;;;;;30.92;14.85;;;;;;;;;;683281;28;986;-60
2024/01/15 01:29:53;;;;;;;30.67;14.83;;;;;;;;;;684323;28;791;-59
2024/01/15 01:30:13;;;;;;;30.33;15.03;;;;;;;;;;684073;28;1262;-59
2024/01/15 01:30:33;;;;;;;29.90;14.43;;;;;;;;;;682039;28;1225;-61
2024/01/15 01:30:53;;;;;;;28.73;14.87;;;;;;;;;;684236;28;1065;-61
2024/01/15 01:31:14;;;;;;;31.63;16.00;;;;;;;;;;683521;28;4361;-60
2024/01/15 01:31:34;;;;;;;27.85;15.43;;;;;;;;;;682580;28;2447;-60
2024/01/15 01:31:56;;;;;;;27.37;14.27;;;;;;;;;;684057;28;1230;-61
2024/01/15 01:32:16;;;;;;;29.90;15.55;;;;;;;;;;684680;28;898;-60
2024/01/15 01:32:37;;;;;;;28.13;15.00;;;;;;;;;;683407;28;1114;-61
2024/01/15 01:32:57;;;;;;;28.95;15.02;;;;;;;;;;683821;28;1184;-60
2024/01/15 01:33:17;;;;;;;27.43;15.10;;;;;;;;;;684293;28;944;-61
2024/01/15 01:33:38;;;;;;;27.83;15.37;;;;;;;;;;683127;28;928;-59
2024/01/15 01:33:58;;;;;;;28.38;15.25;;;;;;;;;;684157;28;933;-61
2024/01/15 01:34:19;;;;;;;29.90;15.13;;;;;;;;;;683619;28;4470;-60
2024/01/15 01:34:41;;;;;;;27.90;14.60;;;;;;;;;;686039;28;1124;-60
2024/01/15 01:35:01;;;;;;;29.02;14.63;;;;;;;;;;689226;28;835;-60
2024/01/15 01:35:22;;;;;;;29.20;14.83;;;;;;;;;;688889;28;1305;-60
2024/01/15 01:35:43;;;;;;;28.92;14.90;;;;;;;;;;687898;28;1338;-60
2024/01/15 01:36:06;;;;;;;29.13;14.73;;;;;;;;;;689251;28;1106;-60
2024/01/15 01:36:27;;;;;;;27.52;14.98;;;;;;;;;;687883;28;1050;-60
2024/01/15 01:36:47;;;;;;;28.27;15.18;;;;;;;;;;687008;28;948;-66
2024/01/15 01:37:07;;;;;;;27.87;14.40;;;;;;;;;;687402;28;4430;-61
2024/01/15 01:37:27;;;;;;;29.03;14.23;;;;;;;;;;688379;28;1062;-60
2024/01/15 01:37:48;;;;;;;29.40;13.82;;;;;;;;;;688788;28;1157;-61
2024/01/15 01:38:08;;;;;;;27.37;13.67;;;;;;;;;;689612;28;908;-60
2024/01/15 01:38:28;;;;;;;29.53;14.53;;;;;;;;;;688533;28;1238;-59
2024/01/15 01:38:48;;;;;;;29.70;14.15;;;;;;;;;;689298;28;1190;-61
2024/01/15 01:39:09;;;;;;;27.93;14.03;;;;;;;;;;684385;28;747;-60
2024/01/15 01:39:30;;;;;;;26.47;13.37;;;;;;;;;;683153;28;6185;-60
2024/01/15 01:39:50;;;;;;;30.85;15.20;;;;;;;;;;684310;28;905;-60
2024/01/15 01:40:10;;;;;;;30.70;15.27;;;;;;;;;;685292;28;4355;-60
2024/01/15 01:40:30;;;;;;;27.80;14.27;;;;;;;;;;686751;28;967;-59
2024/01/15 01:40:51;;;;;;;31.20;14.50;;;;;;;;;;687827;28;886;-60
2024/01/15 01:41:11;;;;;;;31.35;15.73;;;;;;;;;;687239;28;1359;-61
2024/01/15 01:41:31;;;;;;;29.67;15.33;;;;;;;;;;686397;28;1114;-60
2024/01/15 01:41:51;;;;;;;29.63;14.50;;;;;;;;;;687834;28;833;-63
2024/01/15 01:42:12;;;;;;;30.38;14.80;;;;;;;;;;687625;28;1285;-60
2024/01/15 01:42:32;;;;;;;31.70;14.67;;;;;;;;;;689157;28;1294;-61
2024/01/15 01:42:53;;;;;;;30.67;14.40;;;;;;;;;;690165;28;1133;-59
2024/01/15 01:43:13;;;;;;;27.27;13.83;;;;;;;;;;689624;28;4291;-61
2024/01/15 01:43:33;;;;;;;27.13;13.97;;;;;;;;;;688332;28;1033;-60
2024/01/15 01:43:54;;;;;;;30.03;14.97;;;;;;;;;;690166;28;1210;-60
2024/01/15 01:44:14;;;;;;;29.73;15.40;;;;;;;;;;688501;28;893;-60
2024/01/15 01:44:34;;;;;;;30.00;15.00;;;;;;;;;;687795;28;1205;-60
2024/01/15 01:44:54;;;;;;;26.50;14.20;;;;;;;;;;687548;28;1979;-60
2024/01/15 01:45:15;;;;;;;29.10;14.53;;;;;;;;;;687758;28;913;-61
2024/01/15 01:45:35;;;;;;;29.50;14.85;;;;;;;;;;686758;28;910;-61
2024/01/15 01:45:56;;;;;;;30.53;15.27;;;;;;;;;;688104;28;727;-59
2024/01/15 01:46:17;;;;;;;28.52;14.32;;;;;;;;;;684259;28;4618;-59
2024/01/15 01:46:40;;;;;;;29.52;14.27;;;;;;;;;;683833;28;1116;-60
2024/01/15 01:47:01;;;;;;;29.33;14.98;;;;;;;;;;684617;28;941;-60
2024/01/15 01:47:21;;;;;;;29.43;14.60;;;;;;;;;;684713;28;1318;-60
2024/01/15 01:47:41;;;;;;;29.50;14.73;;;;;;;;;;683692;28;1030;-61
2024/01/15 01:48:02;;;;;;;28.67;14.57;;;;;;;;;;685063;28;1269;-60
2024/01/15 01:48:25;;;;;;;29.73;14.60;;;;;;;;;;684757;28;797;-60
2024/01/15 01:48:45;;;;;;;28.90;14.52;;;;;;;;;;684215;28;954;-61
2024/01/15 01:49:06;;;;;;;28.37;14.90;;;;;;;;;;684354;28;4503;-61
2024/01/15 01:49:26;;;;;;;27.42;14.38;;;;;;;;;;686443;28;971;-60
2024/01/15 01:49:47;;;;;;;28.83;14.93;;;;;;;;;;686742;28;825;-61
2024/01/15 01:50:07;;;;;;;28.55;14.10;;;;;;;;;;687392;28;987;-61
2024/01/15 01:50:29;;;;;;;30.27;14.53;;;;;;;;;;686151;28;2856;-60
2024/01/15 01:50:49;;;;;;;27.38;14.20;;;;;;;;;;687263;28;797;-61
2024/01/15 01:51:11;;;;;;;25.15;13.40;;;;;;;;;;687204;28;1208;-60
2024/01/15 01:51:31;;;;;;;28.55;14.40;;;;;;;;;;686273;28;1088;-62
2024/01/15 01:51:52;;;;;;;29.63;14.73;;;;;;;;;;687301;28;1097;-60
2024/01/15 01:52:12;;;;;;;28.70;14.25;;;;;;;;;;689621;28;4425;-61
2024/01/15 01:52:34;;;;;;;28.35;14.15;;;;;;;;;;688833;28;1119;-60
2024/01/15 01:52:55;;;;;;;28.63;14.43;;;;;;;;;;689062;28;1092;-60
2024/01/15 01:53:15;;;;;;;28.98;14.80;;;;;;;;;;684730;28;1007;-60
2024/01/15 01:53:37;;;;;;;30.48;15.15;;;;;;;;;;683829;28;1036;-60
2024/01/15 01:53:58;;;;;;;27.52;14.70;;;;;;;;;;682959;28;1063;-60
2024/01/15 01:54:19;;;;;;;26.50;13.80;;;;;;;;;;684939;28;866;-60
2024/01/15 01:54:40;;;;;;;26.40;13.45;;;;;;;;;;683504;28;1321;-62
2024/01/15 01:55:01;;;;;;;26.67;13.50;;;;;;;;;;684199;28;4586;-60
2024/01/15 01:55:24;;;;;;;29.67;14.38;;;;;;;;;;684858;28;696;-60
2024/01/15 01:55:45;;;;;;;30.98;14.70;;;;;;;;;;684972;28;1020;-61
2024/01/15 01:56:06;;;;;;;28.52;14.80;;;;;;;;;;686469;28;976;-61
2024/01/15 01:56:26;;;;;;;27.70;14.38;;;;;;;;;;686166;28;1131;-62
2024/01/15 01:56:48;;;;;;;28.93;15.13;;;;;;;;;;687535;28;928;-58
2024/01/15 01:57:09;;;;;;;28.52;15.25;;;;;;;;;;690161;28;929;-60
2024/01/15 01:57:30;;;;;;;30.07;14.93;;;;;;;;;;688961;28;1233;-61
2024/01/15 01:57:51;;;;;;;29.85;14.18;;;;;;;;;;689365;28;987;-61
2024/01/15 01:58:11;;;;;;;29.33;14.50;;;;;;;;;;686154;28;4548;-61
2024/01/15 01:58:32;;;;;;;29.67;14.43;;;;;;;;;;686292;28;966;-60
2024/01/15 01:58:53;;;;;;;30.25;14.65;;;;;;;;;;684477;28;1235;-62
2024/01/15 01:59:13;;;;;;;27.75;14.98;;;;;;;;;;682104;28;1045;-62
2024/01/15 01:59:34;;;;;;;26.43;13.87;;;;;;;;;;683406;28;1080;-61
2024/01/15 01:59:55;;;;;;;25.33;13.57;;;;;;;;;;684864;28;783;-62
2024/01/15 02:00:16;;;;;;;26.10;13.82;;;;;;;;;;683341;28;854;-62
2024/01/15 02:00:36;;;;;;;27.73;14.63;;;;;;;;;;683702;28;1053;-61
2024/01/15 02:00:57;;;;;;;30.00;16.03;;;;;;;;;;684709;28;1015;-61
2024/01/15 02:01:18;;;;;;;29.77;15.00;;;;;;;;;;686266;28;4526;-62
2024/01/15 02:01:39;;;;;;;28.38;14.18;;;;;;;;;;687138;28;1081;-61
2024/01/15 02:02:00;;;;;;;30.83;15.25;;;;;;;;;;687378;28;937;-62
2024/01/15 02:02:21;;;;;;;31.08;15.25;;;;;;;;;;686999;28;849;-61
2024/01/15 02:02:41;;;;;;;29.70;14.90;;;;;;;;;;686545;28;1343;-62
2024/01/15 02:03:03;;;;;;;29.50;15.48;;;;;;;;;;687689;28;960;-62
2024/01/15 02:03:23;;;;;;;28.38;15.65;;;;;;;;;;686767;28;933;-61
2024/01/15 02:03:43;;;;;;;28.70;15.10;;;;;;;;;;686518;28;1179;-62